Weather

Clear
Tuesday 01/23 0%
Clear
Mainly sunny. High 47F. Winds N at 5 to 10 mph.
Clear
Wednesday 01/24 0%
Clear
A mainly sunny sky. High 52F. Winds light and variable.
Clear
Thursday 01/25 0%
Clear
Sunny skies. High 52F. Winds SSE at 5 to 10 mph.
Clear
Friday 01/26 0%
Clear
Mainly sunny. High 54F. Winds WSW at 10 to 20 mph.
Clear
Saturday 01/27 0%
Clear
Generally sunny. High 47F. Winds NNW at 5 to 10 mph.

 

 

For a detailed forecast click the banner below.

ballooncastlogo

 

 

Available data for KABQ from the past 2 hours
ALBUQUERQUE, NM
Metar
KABQ 230852Z 00000KT 10SM CLR M06/M13 A3023 RMK AO2 SLP254 T10561133 55001

08:52 UTC

Wind: 0° 0kt

Visibility: 10 SM

Sky:

Temp: -6 deg C / 21.2 deg F

Dewpoint: -13 deg C / 8.6 deg F

Pressure: 30.23 inHg

TAF
KABQ 230520Z 2306/2406 35007KT P6SM SCT250